Watson, Indiana
Current Conditions -  °F | °C
As of 11:53 PM on Sunday 21 Dec 2014 (Local Time) from KLOU Reporting Station
Overcast Overcast  
Wind Chill: 35°   Ceiling: 4500
Heat Index: 35°   Visibility: 10mi
Dew Point: 28°   Wind: 3mph
Humidity: 76%   Direction: 70°ENE
Pressure: 30.08"   Gusts: NA
Location:  38.3363°N, 85.6984°W
Report Text: KLOU 220453Z AUTO 07003KT 10SM OVC045 02/M02 A3008 RMK AO2 SLP188 T00171022 400611061
Loading
Personal Weather Stations






























Interactive Weather Map New forecast layout! Learn more

10-Day Weather Forecast

Advertisements
Track Severe Weather on mobile